Platter, Oklahoma
Current Conditions -  °F | °C
As of 9:55 AM on Friday 24 Oct 2014 (Local Time) from KDUA Reporting Station
Broken Clouds Broken Clouds  
Wind Chill: 61°   Ceiling: 5500
Heat Index: 61°   Visibility: 10mi
Dew Point: 59°   Wind: 8mph
Humidity: 94%   Direction: 170°S
Pressure: 30.17"   Gusts: NA
Location:  33.91°N, 96.53°W
Report Text: KDUA 241455Z AUTO 17007KT 10SM BKN055 16/15 A3017 RMK AO2
Loading
Personal Weather Stations






























Interactive Weather Map
Tropical Storm Tracking
New forecast layout! Learn more

10-Day Weather Forecast

Advertisements
Track Severe Weather on mobile